Time;durP1;ratioP1;P1;durP2;ratioP2;P2;SDS_P1;SDS_P2;PMS_P1;PMS_P2;Temp;Humidity;BMP_temperature;BMP_pressure;BME280_temperature;BME280_humidity;BME280_pressure;Samples;Min_cycle;Max_cycle;Signal;HPM_P1;HPM_P2
2022/07/26 00:01:14;;;;;;;10.20;2.67;;;;;;;16.80;100.00;100345.09;5065931;28;20032;-73
2022/07/26 00:03:39;;;;;;;10.27;1.80;;;;;;;16.78;100.00;100352.34;5063468;28;20502;-73
2022/07/26 00:06:05;;;;;;;6.50;1.67;;;;;;;16.79;100.00;100356.69;5073257;28;20039;-72
2022/07/26 00:08:30;;;;;;;5.47;1.85;;;;;;;16.81;100.00;100364.53;5079519;28;20395;-73
2022/07/26 00:10:56;;;;;;;5.25;2.13;;;;;;;16.83;100.00;100357.31;5082227;28;20024;-73
2022/07/26 00:13:21;;;;;;;7.15;2.10;;;;;;;16.81;100.00;100370.69;5082276;28;20032;-72
2022/07/26 00:15:48;;;;;;;7.63;1.80;;;;;;;16.89;100.00;100383.38;5072165;28;20039;-73
2022/07/26 00:18:14;;;;;;;5.68;2.20;;;;;;;16.59;100.00;100333.50;5062795;28;20033;-73
2022/07/26 00:20:39;;;;;;;9.20;2.60;;;;;;;16.77;100.00;100360.41;5074916;28;20103;-73
2022/07/26 00:23:05;;;;;;;5.53;2.13;;;;;;;16.86;100.00;100383.63;5073177;28;20031;-73
2022/07/26 00:25:31;;;;;;;4.00;2.03;;;;;;;16.77;100.00;100363.91;5054108;28;20029;-73
2022/07/26 00:27:56;;;;;;;12.65;2.33;;;;;;;16.61;100.00;100336.88;5061747;28;20491;-72
2022/07/26 00:30:22;;;;;;;5.15;2.03;;;;;;;16.72;100.00;100362.59;5058586;28;20151;-72
2022/07/26 00:32:47;;;;;;;7.75;2.50;;;;;;;16.76;100.00;100366.69;5072823;28;20466;-72
2022/07/26 00:35:13;;;;;;;6.55;1.80;;;;;;;16.82;100.00;100383.00;5071349;28;20127;-73
2022/07/26 00:37:39;;;;;;;3.90;1.60;;;;;;;16.53;100.00;100335.69;5069281;28;20028;-72
2022/07/26 00:40:05;;;;;;;9.07;3.08;;;;;;;16.71;100.00;100372.34;5056431;28;20471;-73
2022/07/26 00:42:30;;;;;;;7.20;2.33;;;;;;;16.73;100.00;100382.81;5073185;28;20067;-73
2022/07/26 00:44:56;;;;;;;6.70;2.22;;;;;;;16.59;100.00;100369.78;5071209;28;20021;-73
2022/07/26 00:47:21;;;;;;;9.57;2.40;;;;;;;16.31;100.00;100324.09;5073033;28;20040;-74
2022/07/26 00:49:46;;;;;;;4.63;2.00;;;;;;;16.57;100.00;100377.84;5054037;28;20499;-72
2022/07/26 00:52:13;;;;;;;4.15;2.13;;;;;;;16.66;100.00;100400.19;5068443;28;20021;-74
2022/07/26 00:54:42;;;;;;;4.07;2.13;;;;;;;16.58;100.00;100381.34;5051713;28;20021;-75
2022/07/26 00:57:08;;;;;;;6.30;1.70;;;;;;;16.46;100.00;100374.28;5051444;28;20036;-72
2022/07/26 00:59:33;;;;;;;9.32;2.58;;;;;;;16.55;100.00;100381.56;5065591;28;20024;-73
2022/07/26 01:01:58;;;;;;;6.25;2.30;;;;;;;16.45;100.00;100367.28;5048627;28;20067;-73
2022/07/26 01:04:24;;;;;;;5.55;2.38;;;;;;;16.34;100.00;100349.53;5062823;28;20475;-74
2022/07/26 01:06:50;;;;;;;10.27;3.28;;;;;;;16.40;100.00;100375.56;5088009;28;20029;-73
2022/07/26 01:09:15;;;;;;;4.70;2.03;;;;;;;16.48;100.00;100388.28;5054133;28;20027;-72
2022/07/26 01:11:41;;;;;;;5.93;2.03;;;;;;;16.49;100.00;100396.13;5087641;28;20036;-72
2022/07/26 01:14:07;;;;;;;5.47;2.35;;;;;;;16.20;100.00;100352.34;5081560;28;20036;-72
2022/07/26 01:16:32;;;;;;;3.80;2.03;;;;;;;16.40;100.00;100385.34;5052859;28;20384;-72
2022/07/26 01:18:58;;;;;;;10.23;2.45;;;;;;;16.39;100.00;100383.66;5062205;28;20054;-71
2022/07/26 01:21:30;;;;;;;8.30;2.17;;;;;;;16.32;100.00;100388.59;5064696;28;20379;-72
2022/07/26 01:23:56;;;;;;;7.55;2.90;;;;;;;16.33;100.00;100390.25;5058622;28;20421;-72
2022/07/26 01:26:21;;;;;;;5.53;2.33;;;;;;;16.29;100.00;100394.94;5058992;28;20033;-73
2022/07/26 01:28:48;;;;;;;7.40;2.47;;;;;;;16.26;100.00;100391.66;5057833;28;20031;-73
2022/07/26 01:31:14;;;;;;;7.90;2.88;;;;;;;16.24;100.00;100388.28;5052991;28;20028;-73
2022/07/26 01:33:39;;;;;;;5.60;2.47;;;;;;;16.09;100.00;100360.22;5061002;28;20474;-75
2022/07/26 01:36:05;;;;;;;5.60;2.10;;;;;;;15.97;100.00;100351.41;5050810;28;20106;-76
2022/07/26 01:38:30;;;;;;;11.05;3.10;;;;;;;16.08;100.00;100371.81;5049725;28;20039;-72
2022/07/26 01:40:56;;;;;;;5.07;2.42;;;;;;;15.95;100.00;100349.81;5046680;28;20037;-72
2022/07/26 01:43:21;;;;;;;5.30;2.28;;;;;;;15.98;100.00;100353.09;5066608;28;20032;-72
2022/07/26 01:45:46;;;;;;;8.57;2.78;;;;;;;16.10;100.00;100368.09;5054984;28;20124;-71
2022/07/26 01:48:12;;;;;;;5.97;2.67;;;;;;;15.97;100.00;100356.69;5066978;28;20029;-71
2022/07/26 01:50:37;;;;;;;9.15;2.40;;;;;;;15.94;100.00;100348.97;5060827;28;20082;-71
2022/07/26 01:53:03;;;;;;;7.63;3.00;;;;;;;16.03;100.00;100373.94;5066987;28;20490;-72
2022/07/26 01:55:28;;;;;;;4.93;2.38;;;;;;;15.88;100.00;100357.38;5078216;28;20039;-72
2022/07/26 01:57:54;;;;;;;7.97;3.08;;;;;;;15.95;100.00;100379.81;5073332;28;20033;-72
2022/07/26 02:00:19;;;;;;;6.20;3.15;;;;;;;15.93;100.00;100379.06;5074846;28;20031;-73
2022/07/26 02:02:45;;;;;;;9.13;3.15;;;;;;;15.90;100.00;100381.94;5064960;28;20051;-72
2022/07/26 02:05:11;;;;;;;9.80;2.40;;;;;;;15.87;100.00;100371.56;5076090;28;20478;-73
2022/07/26 02:07:39;;;;;;;15.60;3.10;;;;;;;15.80;100.00;100372.97;5061720;28;20046;-71
2022/07/26 02:10:06;;;;;;;12.45;3.58;;;;;;;15.77;100.00;100373.19;5060776;28;20027;-72
2022/07/26 02:12:31;;;;;;;5.70;3.03;;;;;;;15.73;100.00;100369.91;5060295;28;20037;-72
2022/07/26 02:14:57;;;;;;;6.20;2.72;;;;;;;15.80;100.00;100394.16;5071246;28;20025;-72
2022/07/26 02:17:22;;;;;;;7.97;2.80;;;;;;;15.79;100.00;100400.41;5066409;28;20372;-72
2022/07/26 02:19:48;;;;;;;8.90;2.95;;;;;;;15.61;100.00;100377.91;5074214;28;20025;-71
2022/07/26 02:22:13;;;;;;;7.40;2.88;;;;;;;15.75;100.00;100391.84;5076035;28;20025;-72
2022/07/26 02:24:38;;;;;;;8.10;3.28;;;;;;;15.26;100.00;100312.38;5068431;28;20024;-72
2022/07/26 02:27:04;;;;;;;6.63;3.47;;;;;;;15.75;100.00;100404.22;5084361;28;20029;-72
2022/07/26 02:29:30;;;;;;;9.60;3.08;;;;;;;15.75;100.00;100401.59;5062554;28;20396;-72
2022/07/26 02:31:56;;;;;;;8.80;3.38;;;;;;;15.74;100.00;100397.25;5064007;28;20473;-72
2022/07/26 02:34:22;;;;;;;8.15;2.72;;;;;;;15.69;100.00;100383.47;5072123;28;20123;-73
2022/07/26 02:36:47;;;;;;;7.47;3.50;;;;;;;15.62;100.00;100377.78;5061609;28;20039;-72
2022/07/26 02:39:13;;;;;;;13.30;3.83;;;;;;;15.71;100.00;100386.88;5065836;28;20098;-72
2022/07/26 02:41:38;;;;;;;8.43;3.15;;;;;;;15.66;100.00;100373.09;5067970;28;20410;-72
2022/07/26 02:44:04;;;;;;;10.15;3.80;;;;;;;15.69;100.00;100378.19;5069595;28;20570;-71
2022/07/26 02:46:30;;;;;;;10.60;3.85;;;;;;;15.72;100.00;100380.63;5055817;28;20387;-72
2022/07/26 02:48:55;;;;;;;8.40;3.30;;;;;;;15.77;100.00;100386.44;5069857;28;20111;-71
2022/07/26 02:51:21;;;;;;;13.90;4.20;;;;;;;15.75;100.00;100386.53;5057330;28;20102;-71
2022/07/26 02:53:46;;;;;;;6.20;2.70;;;;;;;15.79;100.00;100403.91;5070461;28;20055;-72
2022/07/26 02:56:12;;;;;;;8.05;3.50;;;;;;;15.71;100.00;100387.75;5069122;28;20024;-72
2022/07/26 02:58:37;;;;;;;8.20;3.10;;;;;;;15.79;100.00;100401.25;5075401;28;20059;-72
2022/07/26 03:01:03;;;;;;;6.28;3.15;;;;;;;15.68;100.00;100376.50;5075055;28;20032;-72
2022/07/26 03:03:28;;;;;;;9.60;4.22;;;;;;;15.89;100.00;100412.03;5064752;28;20519;-73
2022/07/26 03:05:54;;;;;;;11.73;4.38;;;;;;;15.89;100.00;100401.44;5070923;28;20044;-72
2022/07/26 03:08:19;;;;;;;7.78;3.67;;;;;;;15.94;100.00;100417.88;5066223;28;20017;-71
2022/07/26 03:10:45;;;;;;;10.73;3.35;;;;;;;15.84;100.00;100391.19;5058180;28;20032;-72
2022/07/26 03:13:10;;;;;;;9.65;3.97;;;;;;;15.87;100.00;100399.88;5087045;28;20106;-72
2022/07/26 03:15:35;;;;;;;8.07;3.25;;;;;;;15.90;100.00;100405.81;5064103;28;20064;-71
2022/07/26 03:18:01;;;;;;;13.27;3.83;;;;;;;15.88;100.00;100394.47;5071067;28;20047;-71
2022/07/26 03:20:26;;;;;;;11.18;4.25;;;;;;;15.94;100.00;100417.03;5072844;28;20093;-72
2022/07/26 03:22:51;;;;;;;6.13;2.95;;;;;;;15.87;100.00;100392.78;5060746;28;20037;-72
2022/07/26 03:25:17;;;;;;;10.13;3.47;;;;;;;15.95;100.00;100406.34;5082335;28;20020;-71
2022/07/26 03:27:42;;;;;;;10.80;3.80;;;;;;;15.98;100.00;100419.34;5062526;28;20037;-72
2022/07/26 03:30:08;;;;;;;7.55;3.35;;;;;;;15.99;100.00;100423.69;5090261;28;20073;-72
2022/07/26 03:32:33;;;;;;;9.50;3.83;;;;;;;15.98;100.00;100411.41;5084198;28;20391;-72
2022/07/26 03:34:59;;;;;;;14.93;3.72;;;;;;;15.94;100.00;100409.94;5084506;28;20476;-72
2022/07/26 03:37:24;;;;;;;15.65;3.60;;;;;;;15.95;100.00;100414.28;5061489;28;20031;-71
2022/07/26 03:39:50;;;;;;;11.13;3.67;;;;;;;15.98;100.00;100424.66;5074359;28;20046;-72
2022/07/26 03:42:16;;;;;;;8.85;4.22;;;;;;;15.58;100.00;100359.59;5074992;28;20374;-72
2022/07/26 03:44:42;;;;;;;10.68;3.75;;;;;;;15.88;100.00;100410.38;5061293;28;20033;-71
2022/07/26 03:47:07;;;;;;;16.92;4.38;;;;;;;15.94;100.00;100420.53;5070266;28;20025;-72
2022/07/26 03:49:33;;;;;;;10.18;4.38;;;;;;;15.94;100.00;100425.84;5063255;28;20118;-71
2022/07/26 03:51:58;;;;;;;14.70;4.32;;;;;;;15.93;100.00;100424.13;5090608;27;20020;-72
2022/07/26 03:54:23;;;;;;;9.18;4.10;;;;;;;15.91;100.00;100425.19;5063179;28;20038;-70
2022/07/26 03:56:50;;;;;;;15.43;4.07;;;;;;;15.96;100.00;100428.34;5063131;28;20029;-71
2022/07/26 03:59:17;;;;;;;9.38;3.95;;;;;;;15.78;100.00;100404.03;5060819;28;20113;-70
2022/07/26 04:01:43;;;;;;;12.50;3.75;;;;;;;15.93;100.00;100433.88;5066146;28;20024;-71
2022/07/26 04:04:10;;;;;;;11.15;3.88;;;;;;;15.95;100.00;100438.13;5067878;28;20127;-71
2022/07/26 04:06:36;;;;;;;8.88;4.10;;;;;;;15.75;100.00;100410.38;5056835;28;20475;-72
2022/07/26 04:09:02;;;;;;;13.73;4.47;;;;;;;15.74;100.00;100421.09;5083267;28;20037;-73
2022/07/26 04:11:28;;;;;;;10.25;4.18;;;;;;;15.86;100.00;100449.38;5054756;28;20039;-72
2022/07/26 04:13:53;;;;;;;8.55;4.10;;;;;;;15.81;100.00;100440.91;5054448;28;20024;-70
2022/07/26 04:16:19;;;;;;;9.85;4.80;;;;;;;15.80;100.00;100440.06;5078315;28;20107;-73
2022/07/26 04:18:44;;;;;;;12.88;4.60;;;;;;;15.86;100.00;100465.28;5065801;28;20797;-72
2022/07/26 04:21:10;;;;;;;13.52;4.75;;;;;;;15.50;100.00;100405.16;5077033;28;20489;-72
2022/07/26 04:23:35;;;;;;;21.13;4.90;;;;;;;15.55;100.00;100418.91;5081107;28;20385;-72
2022/07/26 04:26:00;;;;;;;11.85;4.47;;;;;;;15.71;100.00;100450.47;5063288;28;20516;-72
2022/07/26 04:28:27;;;;;;;10.45;4.85;;;;;;;15.56;100.00;100433.84;5075044;28;20020;-72
2022/07/26 04:30:56;;;;;;;10.93;4.20;;;;;;;15.59;100.00;100438.06;5072947;28;20024;-72
2022/07/26 04:33:22;;;;;;;8.85;4.53;;;;;;;15.70;100.00;100459.38;5073600;28;20025;-72
2022/07/26 04:35:47;;;;;;;9.10;4.57;;;;;;;15.61;100.00;100444.97;5055017;28;20074;-72
2022/07/26 04:38:13;;;;;;;15.18;5.10;;;;;;;15.65;100.00;100450.88;5068636;28;20024;-72
2022/07/26 04:40:38;;;;;;;12.80;4.97;;;;;;;15.65;100.00;100448.22;5064673;28;20025;-72
2022/07/26 04:43:03;;;;;;;18.30;4.32;;;;;;;15.69;100.00;100453.22;5064496;28;20485;-72
2022/07/26 04:45:29;;;;;;;14.75;5.40;;;;;;;15.81;100.00;100462.13;5081975;28;20031;-72
2022/07/26 04:47:55;;;;;;;12.07;4.45;;;;;;;15.74;100.00;100443.16;5057542;28;21069;-71
2022/07/26 04:50:21;;;;;;;9.90;4.35;;;;;;;15.72;100.00;100446.84;5086249;28;20029;-72
2022/07/26 04:52:48;;;;;;;8.50;4.28;;;;;;;15.86;100.00;100459.97;5067911;28;20020;-71
2022/07/26 04:55:14;;;;;;;15.32;5.47;;;;;;;15.82;100.00;100455.84;5090435;28;20028;-71
2022/07/26 04:57:39;;;;;;;8.95;3.95;;;;;;;15.67;100.00;100427.78;5067826;28;20035;-72
2022/07/26 05:00:07;;;;;;;9.50;4.07;;;;;;;15.93;100.00;100470.97;5060431;28;20039;-72
2022/07/26 05:02:32;;;;;;;10.93;4.85;;;;;;;15.97;100.00;100468.00;5081061;28;20055;-71
2022/07/26 05:04:57;;;;;;;13.82;4.60;;;;;;;16.00;100.00;100475.75;5070569;28;20103;-72
2022/07/26 05:07:23;;;;;;;15.57;5.05;;;;;;;15.94;100.00;100456.78;5071330;28;20040;-72
2022/07/26 05:09:48;;;;;;;15.68;5.55;;;;;;;15.86;100.00;100441.41;5084136;28;20474;-72
2022/07/26 05:12:13;;;;;;;11.55;4.68;;;;;;;15.97;100.00;100468.00;5080687;28;20027;-71
2022/07/26 05:14:39;;;;;;;11.82;4.75;;;;;;;15.97;100.00;100461.88;5071538;28;20093;-72
2022/07/26 05:17:05;;;;;;;9.82;4.70;;;;;;;16.05;100.00;100472.78;5075012;28;20506;-72
2022/07/26 05:19:30;;;;;;;15.43;5.35;;;;;;;16.10;100.00;100473.28;5057113;28;20017;-72
2022/07/26 05:21:56;;;;;;;16.10;4.65;;;;;;;16.01;100.00;100466.84;5054118;28;20024;-72
2022/07/26 05:24:21;;;;;;;12.65;5.00;;;;;;;15.70;100.00;100417.81;5056857;28;20025;-72
2022/07/26 05:26:47;;;;;;;16.48;5.07;;;;;;;15.92;100.00;100464.81;5072391;28;20044;-72
2022/07/26 05:29:12;;;;;;;20.58;5.80;;;;;;;16.03;100.00;100488.78;5067458;28;20024;-72
2022/07/26 05:31:38;;;;;;;9.95;4.75;;;;;;;15.90;100.00;100465.91;5053745;28;20053;-72
2022/07/26 05:34:03;;;;;;;16.38;5.53;;;;;;;15.67;100.00;100427.78;5067720;28;20044;-72
2022/07/26 05:36:29;;;;;;;12.80;5.25;;;;;;;15.91;100.00;100467.59;5058954;28;20498;-72
2022/07/26 05:38:54;;;;;;;12.88;5.57;;;;;;;15.93;100.00;100477.13;5052693;28;20090;-71
2022/07/26 05:41:20;;;;;;;13.38;5.35;;;;;;;15.82;100.00;100456.69;5053906;28;20042;-72
2022/07/26 05:43:45;;;;;;;14.10;6.60;;;;;;;15.97;100.00;100478.63;5056151;28;20083;-72
2022/07/26 05:46:11;;;;;;;16.38;5.25;;;;;;;15.91;100.00;100468.47;5072834;28;20021;-72
2022/07/26 05:48:38;;;;;;;13.45;5.38;;;;;;;15.92;100.00;100470.13;5069337;28;20021;-71
2022/07/26 05:51:03;;;;;;;14.65;5.93;;;;;;;15.85;100.00;100468.88;5059844;28;20528;-71
2022/07/26 05:53:29;;;;;;;16.20;5.53;;;;;;;15.97;100.00;100483.06;5054607;28;20037;-72
2022/07/26 05:55:54;;;;;;;11.07;4.50;;;;;;;15.99;100.00;100481.13;5045995;28;20078;-71
2022/07/26 05:58:19;;;;;;;18.05;5.97;;;;;;;15.86;100.00;100457.31;5054321;28;20158;-71
2022/07/26 06:00:45;;;;;;;15.63;5.70;;;;;;;16.12;100.00;100504.03;5066668;28;20039;-72
2022/07/26 06:03:22;;;;;;;12.95;5.32;;;;;;;16.08;100.00;100485.81;5068002;28;20454;-72
2022/07/26 06:05:56;;;;;;;13.55;5.53;;;;;;;16.23;100.00;100501.47;5085211;28;20032;-72
2022/07/26 06:08:22;;;;;;;12.00;4.97;;;;;;;16.18;100.00;100486.84;5067344;28;20028;-70
2022/07/26 06:10:47;;;;;;;11.70;4.43;;;;;;;16.24;100.00;100497.84;5062614;28;20055;-72
2022/07/26 06:13:13;;;;;;;19.42;6.60;;;;;;;16.36;100.00;100512.03;5060777;28;20112;-71
2022/07/26 06:15:39;;;;;;;16.80;5.45;;;;;;;16.39;100.00;100516.28;5055687;28;20029;-73
2022/07/26 06:18:05;;;;;;;14.45;5.80;;;;;;;16.02;100.00;100449.16;5069267;28;20497;-72
2022/07/26 06:20:31;;;;;;;15.23;5.28;;;;;;;16.49;100.00;100525.25;5071097;28;20028;-71
2022/07/26 06:22:57;;;;;;;19.70;6.57;;;;;;;16.37;100.00;100503.13;5056729;28;20074;-71
2022/07/26 06:25:23;;;;;;;11.75;5.40;;;;;;;16.17;100.00;100472.72;5060306;28;20112;-71
2022/07/26 06:27:49;;;;;;;10.52;4.68;;;;;;;16.58;100.00;100527.28;5056609;28;20039;-72
2022/07/26 06:30:14;;;;;;;17.33;5.43;;;;;;;16.51;100.00;100504.75;5069178;28;20021;-72
2022/07/26 06:32:43;;;;;;;19.88;5.38;;;;;;;16.65;100.00;100523.22;5071211;28;20028;-71
2022/07/26 06:35:11;;;;;;;12.88;5.50;;;;;;;16.76;100.00;100532.06;5064751;28;20020;-71
2022/07/26 06:37:38;;;;;;;11.68;5.05;;;;;;;16.55;100.00;100490.31;5061355;28;20820;-70
2022/07/26 06:40:04;;;;;;;15.48;5.78;;;;;;;16.91;100.00;100530.09;5083862;28;20154;-71
2022/07/26 06:42:31;;;;;;;12.20;5.75;;;;;;;16.81;100.00;100513.16;5074115;28;20054;-71
2022/07/26 06:44:57;;;;;;;14.55;6.47;;;;;;;17.02;100.00;100546.09;5073243;28;20025;-71
2022/07/26 06:47:22;;;;;;;13.20;5.72;;;;;;;17.01;100.00;100530.25;5077866;28;20063;-72
2022/07/26 06:49:48;;;;;;;14.68;6.03;;;;;;;17.06;100.00;100525.47;5074257;28;20028;-71
2022/07/26 06:52:13;;;;;;;7.43;4.13;;;;;;;16.91;100.00;100492.06;5057136;28;20061;-71
2022/07/26 06:54:38;;;;;;;13.25;4.95;;;;;;;17.21;100.00;100525.13;5054041;28;20036;-71
2022/07/26 06:57:04;;;;;;;14.25;5.20;;;;;;;17.40;100.00;100547.66;5052724;28;20468;-72
2022/07/26 06:59:29;;;;;;;16.25;6.18;;;;;;;17.56;100.00;100553.53;5070463;28;20043;-72
2022/07/26 07:01:54;;;;;;;18.75;6.93;;;;;;;17.62;100.00;100551.25;5065281;28;20032;-70
2022/07/26 07:04:20;;;;;;;12.93;6.03;;;;;;;17.20;100.00;100466.84;5056313;28;20093;-71
2022/07/26 07:06:45;;;;;;;17.38;5.45;;;;;;;17.64;100.00;100532.53;5066918;28;20024;-71
2022/07/26 07:09:11;;;;;;;15.32;5.25;;;;;;;17.56;100.00;100497.72;5054995;28;20029;-71
2022/07/26 07:11:36;;;;;;;22.08;6.65;;;;;;;17.92;100.00;100540.03;5072741;28;20017;-71
2022/07/26 07:14:02;;;;;;;12.98;5.38;;;;;;;18.07;100.00;100554.81;5060212;28;20490;-71
2022/07/26 07:16:27;;;;;;;16.27;6.22;;;;;;;17.99;100.00;100530.63;5067731;28;20025;-71
2022/07/26 07:18:53;;;;;;;17.75;6.18;;;;;;;18.01;100.00;100552.63;5071277;28;20139;-72
2022/07/26 07:21:18;;;;;;;15.15;6.03;;;;;;;18.07;100.00;100560.13;5064414;28;20102;-71
2022/07/26 07:23:43;;;;;;;11.85;5.28;;;;;;;18.04;100.00;100538.25;5081593;28;20024;-71
2022/07/26 07:26:09;;;;;;;14.90;6.60;;;;;;;18.11;100.00;100552.75;5075417;28;20028;-71
2022/07/26 07:28:37;;;;;;;13.45;5.65;;;;;;;18.09;100.00;100558.19;5064159;28;20028;-71
2022/07/26 07:31:03;;;;;;;7.15;4.47;;;;;;;18.10;100.00;100567.84;5075436;28;20055;-71
2022/07/26 07:33:29;;;;;;;12.30;5.30;;;;;;;18.12;100.00;100570.38;5067419;28;20098;-72
2022/07/26 07:35:54;;;;;;;21.63;7.05;;;;;;;18.08;100.00;100569.78;5058335;28;20430;-71
2022/07/26 07:38:20;;;;;;;11.02;5.80;;;;;;;18.12;100.00;100570.38;5069315;28;20028;-72
2022/07/26 07:40:45;;;;;;;14.98;5.75;;;;;;;18.08;100.00;100559.13;5061558;28;20032;-72
2022/07/26 07:43:10;;;;;;;18.67;6.45;;;;;;;18.06;100.00;100547.78;5073308;28;20550;-72
2022/07/26 07:45:36;;;;;;;15.23;6.18;;;;;;;18.27;100.00;100579.81;5064418;28;20021;-71
2022/07/26 07:48:01;;;;;;;14.13;6.38;;;;;;;18.31;100.00;100574.16;5063534;28;20071;-71
2022/07/26 07:50:27;;;;;;;16.63;5.70;;;;;;;18.44;100.00;100578.47;5054417;28;20584;-72
2022/07/26 07:52:52;;;;;;;12.60;5.90;;;;;;;18.66;100.00;100573.16;5053591;28;20548;-72
2022/07/26 07:55:17;;;;;;;15.77;6.90;;;;;;;18.82;100.00;100573.63;5066249;28;20522;-71
2022/07/26 07:57:43;;;;;;;14.40;5.75;;;;;;;18.91;100.00;100562.22;5058305;28;20102;-72
2022/07/26 08:00:09;;;;;;;16.42;6.82;;;;;;;19.01;100.00;100568.47;5063969;28;20443;-72
2022/07/26 08:02:34;;;;;;;18.85;6.22;;;;;;;19.11;100.00;100582.72;5070997;28;20101;-69
2022/07/26 08:05:00;;;;;;;18.15;6.18;;;;;;;19.05;100.00;100567.25;5076919;28;20032;-72
2022/07/26 08:07:25;;;;;;;23.15;6.70;;;;;;;19.16;100.00;100575.19;5072663;28;20036;-70
2022/07/26 08:09:50;;;;;;;14.23;7.30;;;;;;;19.23;100.00;100594.19;5074524;28;20032;-71
2022/07/26 08:12:16;;;;;;;16.25;6.57;;;;;;;19.32;100.00;100580.94;5054389;28;20048;-72
2022/07/26 08:14:41;;;;;;;15.88;6.82;;;;;;;19.49;100.00;100578.72;5057804;28;20471;-72
2022/07/26 08:17:07;;;;;;;16.02;7.97;;;;;;;19.65;100.00;100579.09;5056991;28;20025;-73
2022/07/26 08:19:33;;;;;;;13.05;7.38;;;;;;;19.65;100.00;100557.78;5073198;28;20111;-72
2022/07/26 08:21:58;;;;;;;14.00;7.60;;;;;;;19.73;100.00;100581.97;5068069;28;20487;-75
2022/07/26 08:24:23;;;;;;;15.18;8.32;;;;;;;19.59;100.00;100563.63;5084960;28;20150;-73
2022/07/26 08:26:52;;;;;;;13.60;6.82;;;;;;;19.56;100.00;100558.56;5068235;28;20036;-73
2022/07/26 08:29:17;;;;;;;13.95;6.78;;;;;;;19.77;100.00;100583.41;5057524;28;20017;-72
2022/07/26 08:31:43;;;;;;;17.85;5.38;;;;;;;19.87;100.00;100581.63;5066386;28;20106;-73
2022/07/26 08:34:09;;;;;;;9.93;5.53;;;;;;;19.85;100.00;100562.25;5064068;28;20115;-72
2022/07/26 08:36:34;;;;;;;11.38;5.88;;;;;;;19.99;100.00;100583.25;5059273;28;20113;-71
2022/07/26 08:39:00;;;;;;;15.32;7.63;;;;;;;19.89;100.00;100555.66;5063952;28;20037;-72
2022/07/26 08:41:26;;;;;;;11.73;6.13;;;;;;;20.18;100.00;100588.66;5052090;28;20395;-71
2022/07/26 08:43:51;;;;;;;11.57;6.30;;;;;;;20.09;100.00;100565.47;5068154;28;20120;-71
2022/07/26 08:46:17;;;;;;;14.40;7.63;;;;;;;20.14;100.00;100581.06;5067572;28;20031;-72
2022/07/26 08:48:42;;;;;;;11.00;6.50;;;;;;;20.14;100.00;100563.22;5057484;28;20025;-72
2022/07/26 08:51:08;;;;;;;15.70;6.93;;;;;;;20.29;100.00;100569.94;5050273;28;20120;-71
2022/07/26 08:53:37;;;;;;;16.00;6.57;;;;;;;20.20;100.00;100565.38;5067697;28;20039;-72
2022/07/26 08:56:04;;;;;;;11.77;7.03;;;;;;;20.17;100.00;100591.47;5073888;28;20070;-72
2022/07/26 08:58:33;;;;;;;12.10;7.20;;;;;;;20.04;100.00;100562.31;5070190;28;20443;-73
2022/07/26 09:01:06;;;;;;;13.13;6.97;;;;;;;20.14;100.00;100587.22;5069306;28;20063;-73
2022/07/26 09:03:32;;;;;;;16.42;7.05;;;;;;;20.09;100.00;100573.47;5069354;28;20452;-72
2022/07/26 09:06:15;;;;;;;10.90;7.32;;;;;;;20.01;100.00;100581.28;5059119;28;20111;-70
2022/07/26 09:08:41;;;;;;;12.43;7.55;;;;;;;19.84;100.00;100579.22;5058943;28;20080;-72
2022/07/26 09:11:33;;;;;;;13.02;6.35;;;;;;;19.97;100.00;100595.03;5058105;28;20029;-72
2022/07/26 09:14:03;;;;;;;9.85;4.72;;;;;;;19.94;100.00;100593.44;5051995;28;20129;-72
2022/07/26 09:16:28;;;;;;;9.15;5.15;;;;;;;19.90;100.00;100594.72;5057097;28;20086;-72
2022/07/26 09:18:54;;;;;;;11.88;6.03;;;;;;;20.00;100.00;100598.28;5049595;28;20032;-70
2022/07/26 09:21:25;;;;;;;12.70;5.28;;;;;;;20.10;100.00;100601.84;5061124;28;20028;-72
2022/07/26 09:23:51;;;;;;;14.95;5.80;;;;;;;20.19;100.00;100595.69;5051297;28;20039;-72
2022/07/26 09:26:19;;;;;;;12.13;4.72;;;;;;;19.88;100.00;100535.28;5065855;28;20103;-71
2022/07/26 09:28:44;;;;;;;8.85;4.28;;;;;;;20.24;100.00;100588.13;5071406;28;20437;-72
2022/07/26 09:31:10;;;;;;;20.25;4.25;;;;;;;20.39;100.00;100605.50;5053694;28;20028;-71
2022/07/26 09:33:49;;;;;;;12.82;4.45;;;;;;;20.36;100.00;100605.78;5063820;28;20038;-67
2022/07/26 09:36:15;;;;;;;6.30;3.05;;;;;;;20.46;100.00;100607.63;5054445;28;20475;-72
2022/07/26 09:38:42;;;;;;;11.70;3.35;;;;;;;20.62;100.00;100618.66;5061778;28;20086;-71
2022/07/26 09:41:21;;;;;;;9.65;2.95;;;;;;;20.65;100.00;100613.06;5075456;28;20478;-72
2022/07/26 09:43:47;;;;;;;5.97;2.95;;;;;;;20.57;100.00;100620.91;5064340;28;20106;-74
2022/07/26 09:46:13;;;;;;;5.95;3.20;;;;;;;20.49;100.00;100612.69;5075899;28;20032;-73
2022/07/26 09:48:38;;;;;;;6.20;3.10;;;;;;;20.27;100.00;100611.09;5076879;28;20028;-73
2022/07/26 09:51:07;;;;;;;8.70;3.38;;;;;;;20.18;100.00;100623.34;5052114;28;20597;-73
2022/07/26 09:53:46;;;;;;;5.93;3.22;;;;;;;19.97;100.00;100638.56;5066598;28;20033;-73
2022/07/26 09:56:12;;;;;;;7.60;2.78;;;;;;;19.93;100.00;100631.78;5062776;28;20588;-73
2022/07/26 09:58:38;;;;;;;5.25;2.80;;;;;;;20.08;100.00;100635.78;5072824;28;20102;-74
2022/07/26 10:01:04;;;;;;;9.15;3.60;;;;;;;20.15;100.00;100636.97;5061731;28;20058;-74
2022/07/26 10:03:30;;;;;;;8.15;2.92;;;;;;;20.31;100.00;100640.03;5060788;28;20021;-73
2022/07/26 10:05:57;;;;;;;9.38;3.00;;;;;;;20.44;100.00;100631.81;5053280;28;20017;-74
2022/07/26 10:08:23;;;;;;;4.97;2.30;;;;;;;20.24;100.00;100556.09;5082058;28;20025;-73
2022/07/26 10:11:08;;;;;;;11.23;2.47;;;;;;;20.96;100.00;100632.50;5048823;28;20031;-73
2022/07/26 10:13:34;;;;;;;5.93;2.40;;;;;;;20.98;100.00;100631.41;5077271;28;20094;-75
2022/07/26 10:16:00;;;;;;;6.68;2.33;;;;;;;21.09;100.00;100631.28;5053800;28;20130;-75
2022/07/26 10:18:35;;;;;;;4.18;2.15;;;;;;;21.15;100.00;100638.81;5062921;28;20500;-73
2022/07/26 10:21:00;;;;;;;;;;;;;;;21.32;100.00;100646.13;5039040;28;20128;-72
2022/07/26 10:23:42;;;;;;;7.00;1.90;;;;;;;21.26;100.00;100619.94;5072631;28;19996;-73
2022/07/26 10:26:11;;;;;;;4.55;1.70;;;;;;;21.61;100.00;100640.78;5074161;28;20279;-71
2022/07/26 10:28:37;;;;;;;4.38;1.90;;;;;;;21.40;100.00;100637.41;5067353;28;20029;-73
2022/07/26 10:31:21;;;;;;;4.63;2.47;;;;;;;21.53;100.00;100647.84;5057391;28;20029;-72
2022/07/26 10:33:48;;;;;;;4.22;2.13;;;;;;;21.46;100.00;100631.47;5077473;28;20443;-72
2022/07/26 10:36:24;;;;;;;8.45;2.33;;;;;;;21.73;100.00;100638.81;5064667;28;20035;-73
2022/07/26 10:39:01;;;;;;;3.88;2.00;;;;;;;22.09;100.00;100646.09;5078054;28;20060;-75
2022/07/26 10:41:35;;;;;;;4.82;2.35;;;;;;;21.88;100.00;100591.88;5060620;28;20028;-74
2022/07/26 10:44:26;;;;;;;8.38;3.28;;;;;;;22.11;100.00;100614.66;5075998;28;20048;-71
2022/07/26 10:46:59;;;;;;;3.95;1.60;;;;;;;21.96;100.00;100629.50;5069495;28;20114;-70
2022/07/26 10:49:38;;;;;;;4.47;2.10;;;;;;;21.97;100.00;100651.78;5065014;28;20040;-73
2022/07/26 10:52:08;;;;;;;5.65;1.95;;;;;;;21.83;100.00;100647.69;5054271;28;20128;-70
2022/07/26 10:54:58;;;;;;;7.03;1.92;;;;;;;21.91;100.00;100645.16;5057192;28;20033;-72
2022/07/26 10:57:27;;;;;;;4.93;2.03;;;;;;;21.82;100.00;100648.66;5064941;28;20024;-72
2022/07/26 10:59:56;;;;;;;3.20;1.50;;;;;;;22.01;100.00;100643.28;5062062;28;20025;-71
2022/07/26 11:02:25;;;;;;;4.65;1.98;;;;;;;22.04;100.00;100642.16;5074939;28;20060;-72
2022/07/26 11:04:58;;;;;;;5.72;2.08;;;;;;;22.07;100.00;100610.59;5069080;28;20039;-71
2022/07/26 11:07:24;;;;;;;6.90;2.55;;;;;;;22.26;100.00;100642.69;5054553;28;20506;-71
2022/07/26 11:09:54;;;;;;;6.22;2.60;;;;;;;22.07;100.00;100641.88;5059891;28;20025;-71
2022/07/26 11:12:20;;;;;;;6.25;2.35;;;;;;;22.07;100.00;100642.72;5059439;28;20033;-72